createdAt,value
2022-12-07T00:01:19.963Z,0.68
2022-12-07T00:03:47.954Z,0.60
2022-12-07T00:06:16.333Z,0.63
2022-12-07T00:08:42.839Z,0.68
2022-12-07T00:11:12.608Z,0.67
2022-12-07T00:13:39.902Z,0.78
2022-12-07T00:16:12.308Z,0.92
2022-12-07T00:18:39.050Z,0.98
2022-12-07T00:21:13.419Z,0.81
2022-12-07T00:23:41.523Z,0.73
2022-12-07T00:26:13.892Z,0.74
2022-12-07T00:28:40.339Z,0.84
2022-12-07T00:31:10.044Z,0.76
2022-12-07T00:33:36.903Z,0.71
2022-12-07T00:36:07.183Z,0.70
2022-12-07T00:38:35.296Z,0.62
2022-12-07T00:41:04.544Z,0.59
2022-12-07T00:43:31.780Z,0.71
2022-12-07T00:45:59.023Z,0.75
2022-12-07T00:48:25.547Z,0.86
2022-12-07T00:50:52.470Z,0.97
2022-12-07T00:53:18.872Z,1.01
2022-12-07T00:55:46.503Z,1.03
2022-12-07T00:58:13.289Z,1.00
2022-12-07T01:00:42.424Z,0.81
2022-12-07T01:03:12.214Z,0.85
2022-12-07T01:05:39.060Z,0.95
2022-12-07T01:08:06.583Z,0.81
2022-12-07T01:10:33.436Z,0.79
2022-12-07T01:13:00.287Z,0.70
2022-12-07T01:15:27.359Z,0.62
2022-12-07T01:17:55.630Z,0.54
2022-12-07T01:20:22.596Z,0.58
2022-12-07T01:22:49.014Z,0.66
2022-12-07T01:25:15.924Z,0.56
2022-12-07T01:27:42.391Z,0.54
2022-12-07T01:30:10.907Z,0.68
2022-12-07T01:32:37.437Z,0.80
2022-12-07T01:35:04.156Z,0.85
2022-12-07T01:37:35.481Z,0.96
2022-12-07T01:40:02.115Z,0.93
2022-12-07T01:42:29.335Z,0.77
2022-12-07T01:45:26.588Z,0.68
2022-12-07T01:47:56.636Z,0.67
2022-12-07T01:50:26.373Z,0.63
2022-12-07T01:52:57.347Z,0.55
2022-12-07T01:55:24.685Z,0.65
2022-12-07T01:57:54.020Z,0.65
2022-12-07T02:00:20.897Z,0.61
2022-12-07T02:02:58.383Z,0.65
2022-12-07T02:05:25.901Z,0.68
2022-12-07T02:07:55.643Z,0.62
2022-12-07T02:10:24.970Z,0.63
2022-12-07T02:12:56.683Z,0.70
2022-12-07T02:15:28.516Z,0.53
2022-12-07T02:18:18.019Z,0.56
2022-12-07T02:21:23.211Z,0.62
2022-12-07T02:24:26.795Z,0.69
2022-12-07T02:27:17.100Z,0.61
2022-12-07T02:29:50.688Z,0.63
2022-12-07T02:32:24.338Z,0.62
2022-12-07T02:35:13.438Z,0.61
2022-12-07T02:37:52.487Z,0.51
2022-12-07T02:40:22.686Z,0.62
2022-12-07T02:42:54.590Z,0.61
2022-12-07T02:45:23.576Z,0.54
2022-12-07T02:47:54.073Z,0.62
2022-12-07T02:50:23.587Z,0.59
2022-12-07T02:52:50.080Z,0.58
2022-12-07T02:55:19.645Z,0.55
2022-12-07T02:57:57.864Z,0.44
2022-12-07T03:00:24.396Z,0.39
2022-12-07T03:02:59.571Z,0.30
2022-12-07T03:05:50.577Z,0.43
2022-12-07T03:08:16.984Z,0.43
2022-12-07T03:11:01.436Z,0.32
2022-12-07T03:13:42.157Z,0.24
2022-12-07T03:16:20.727Z,0.27
2022-12-07T03:19:00.228Z,0.32
2022-12-07T03:21:39.255Z,0.36
2022-12-07T03:24:12.548Z,0.41
2022-12-07T03:26:51.472Z,0.32
2022-12-07T03:29:26.357Z,0.24
2022-12-07T03:32:01.924Z,0.09
2022-12-07T03:34:37.177Z,-0.06
2022-12-07T03:37:09.542Z,0.02
2022-12-07T03:39:58.273Z,0.17
2022-12-07T03:42:24.944Z,0.18
2022-12-07T03:44:51.693Z,0.27
2022-12-07T03:47:24.026Z,0.20
2022-12-07T03:49:54.909Z,0.21
2022-12-07T03:52:54.697Z,0.31
2022-12-07T03:55:23.752Z,0.38
2022-12-07T03:57:54.459Z,0.31
2022-12-07T04:00:21.058Z,0.30
2022-12-07T04:02:48.313Z,0.27
2022-12-07T04:05:14.832Z,0.30
2022-12-07T04:07:42.187Z,0.29
2022-12-07T04:10:08.999Z,0.30
2022-12-07T04:12:35.433Z,0.22
2022-12-07T04:15:01.911Z,0.24
2022-12-07T04:17:28.329Z,0.28
2022-12-07T04:19:54.787Z,0.30
2022-12-07T04:22:21.211Z,0.30
2022-12-07T04:24:47.616Z,0.19
2022-12-07T04:27:14.005Z,0.15
2022-12-07T04:29:40.468Z,0.13
2022-12-07T04:32:06.887Z,0.19
2022-12-07T04:34:33.347Z,0.20
2022-12-07T04:36:59.832Z,0.22
2022-12-07T04:39:29.600Z,0.24
2022-12-07T04:41:57.177Z,0.23
2022-12-07T04:44:25.431Z,0.14
2022-12-07T04:46:53.397Z,0.09
2022-12-07T04:49:20.622Z,0.13
2022-12-07T04:51:47.491Z,0.18
2022-12-07T04:54:15.709Z,0.13
2022-12-07T04:56:42.750Z,0.09
2022-12-07T04:59:10.988Z,0.11
2022-12-07T05:01:37.536Z,0.11
2022-12-07T05:04:04.238Z,0.11
2022-12-07T05:06:30.822Z,-0.15
2022-12-07T05:08:57.277Z,-0.12
2022-12-07T05:11:41.835Z,-0.02
2022-12-07T05:14:15.888Z,0.03
2022-12-07T05:16:44.259Z,0.13
2022-12-07T05:19:11.198Z,0.08
2022-12-07T05:21:38.523Z,0.06
2022-12-07T05:24:06.201Z,0.03
2022-12-07T05:26:33.011Z,-0.07
2022-12-07T05:28:59.567Z,-0.07
2022-12-07T05:31:28.323Z,-0.01
2022-12-07T05:33:55.051Z,-0.01
2022-12-07T05:36:21.794Z,0.04
2022-12-07T05:38:48.202Z,0.05
2022-12-07T05:41:36.171Z,0.01
2022-12-07T05:44:02.902Z,-0.03
2022-12-07T05:46:29.320Z,-0.19
2022-12-07T05:48:55.865Z,-0.06
2022-12-07T05:51:22.459Z,-0.09
2022-12-07T05:53:48.987Z,-0.02
2022-12-07T05:56:15.560Z,0.04
2022-12-07T05:59:00.758Z,-0.02
2022-12-07T06:01:27.521Z,0.03
2022-12-07T06:03:53.951Z,0.03
2022-12-07T06:06:20.497Z,-0.01
2022-12-07T06:08:47.053Z,-0.19
2022-12-07T06:11:31.902Z,-0.10
2022-12-07T06:13:58.350Z,-0.07
2022-12-07T06:16:24.848Z,-0.07
2022-12-07T06:18:51.378Z,-0.04
2022-12-07T06:21:17.789Z,0.01
2022-12-07T06:23:44.192Z,0.04
2022-12-07T06:26:10.655Z,0.12
2022-12-07T06:28:37.112Z,0.11
2022-12-07T06:31:04.555Z,0.06
2022-12-07T06:33:32.852Z,0.11
2022-12-07T06:35:59.240Z,0.11
2022-12-07T06:38:25.953Z,0.17
2022-12-07T06:40:52.399Z,0.16
2022-12-07T06:43:18.855Z,0.11
2022-12-07T06:45:45.396Z,0.15
2022-12-07T06:48:11.889Z,0.15
2022-12-07T06:50:38.572Z,0.16
2022-12-07T06:53:05.052Z,0.10
2022-12-07T06:55:31.464Z,0.16
2022-12-07T06:57:57.923Z,0.11
2022-12-07T07:00:25.527Z,0.14
2022-12-07T07:02:52.102Z,0.09
2022-12-07T07:05:18.681Z,0.01
2022-12-07T07:08:19.757Z,0.06
2022-12-07T07:10:31.563Z,0.06
2022-12-07T07:12:58.015Z,0.10
2022-12-07T07:15:24.940Z,0.16
2022-12-07T07:17:51.567Z,0.28
2022-12-07T07:20:18.316Z,0.23
2022-12-07T07:22:44.925Z,0.24
2022-12-07T07:25:11.400Z,0.23
2022-12-07T07:27:37.837Z,0.17
2022-12-07T07:30:05.618Z,0.32
2022-12-07T07:32:32.113Z,0.37
2022-12-07T07:34:58.575Z,0.33
2022-12-07T07:37:25.141Z,0.32
2022-12-07T07:39:51.553Z,0.20
2022-12-07T07:42:18.153Z,0.27
2022-12-07T07:44:44.826Z,0.26
2022-12-07T07:47:11.285Z,0.34
2022-12-07T07:49:39.883Z,0.45
2022-12-07T07:52:09.693Z,0.51
2022-12-07T07:54:36.242Z,0.49
2022-12-07T07:57:02.720Z,0.48
2022-12-07T07:59:29.251Z,0.48
2022-12-07T08:01:55.999Z,0.50
2022-12-07T08:04:22.660Z,0.48
2022-12-07T08:06:49.135Z,0.44
2022-12-07T08:09:15.576Z,0.55
2022-12-07T08:11:42.034Z,0.61
2022-12-07T08:14:08.511Z,0.70
2022-12-07T08:16:34.928Z,0.60
2022-12-07T08:19:01.363Z,0.53
2022-12-07T08:21:27.847Z,0.60
2022-12-07T08:23:54.359Z,0.52
2022-12-07T08:26:20.891Z,0.54
2022-12-07T08:28:47.361Z,0.61
2022-12-07T08:31:17.568Z,0.63
2022-12-07T08:33:46.628Z,0.75
2022-12-07T08:36:14.454Z,0.83
2022-12-07T08:39:07.886Z,0.95
2022-12-07T08:41:33.558Z,0.90
2022-12-07T08:44:00.039Z,0.75
2022-12-07T08:46:40.913Z,0.85
2022-12-07T08:49:24.416Z,0.91
2022-12-07T08:51:51.005Z,0.92
2022-12-07T08:54:19.385Z,0.92
2022-12-07T08:56:49.471Z,0.91
2022-12-07T08:59:19.024Z,0.95
2022-12-07T09:01:45.559Z,0.81
2022-12-07T09:04:12.268Z,0.89
2022-12-07T09:06:39.462Z,1.00
2022-12-07T09:09:07.590Z,1.03
2022-12-07T09:11:34.041Z,0.98
2022-12-07T09:14:00.508Z,1.22
2022-12-07T09:16:27.095Z,1.30
2022-12-07T09:18:53.568Z,1.16
2022-12-07T09:21:19.973Z,1.07
2022-12-07T09:23:46.572Z,1.15
2022-12-07T09:26:13.048Z,1.11
2022-12-07T09:28:39.872Z,1.16
2022-12-07T09:31:23.768Z,1.27
2022-12-07T09:33:59.104Z,1.25
2022-12-07T09:36:26.737Z,1.37
2022-12-07T09:38:53.559Z,1.45
2022-12-07T09:41:20.993Z,1.51
2022-12-07T09:43:48.010Z,1.57
2022-12-07T09:46:18.457Z,1.56
2022-12-07T09:48:45.851Z,1.64
2022-12-07T09:51:23.165Z,1.70
2022-12-07T09:53:53.329Z,1.65
2022-12-07T09:56:20.953Z,1.72
2022-12-07T09:58:48.294Z,1.73
2022-12-07T10:01:16.183Z,1.75
2022-12-07T10:03:54.044Z,1.83
2022-12-07T10:06:20.495Z,1.79
2022-12-07T10:08:47.385Z,1.83
2022-12-07T10:11:17.992Z,1.81
2022-12-07T10:13:54.919Z,1.85
2022-12-07T10:16:39.174Z,1.96
2022-12-07T10:19:26.869Z,2.08
2022-12-07T10:22:02.342Z,2.18
2022-12-07T10:24:29.068Z,2.24
2022-12-07T10:26:55.981Z,2.36
2022-12-07T10:29:25.268Z,2.33
2022-12-07T10:32:04.988Z,2.32
2022-12-07T10:34:42.600Z,2.36
2022-12-07T10:37:13.813Z,2.34
2022-12-07T10:39:51.098Z,2.32
2022-12-07T10:42:21.101Z,2.45
2022-12-07T10:44:49.334Z,2.50
2022-12-07T10:47:38.395Z,2.59
2022-12-07T10:50:46.921Z,2.57
2022-12-07T10:53:34.343Z,2.66
2022-12-07T10:56:23.007Z,2.85
2022-12-07T10:58:58.496Z,2.74
2022-12-07T11:01:43.594Z,2.69
2022-12-07T11:04:25.384Z,2.79
2022-12-07T11:06:51.725Z,2.86
2022-12-07T11:09:18.124Z,2.96
2022-12-07T11:11:57.677Z,3.02
2022-12-07T11:14:41.821Z,3.01
2022-12-07T11:17:10.938Z,3.07
2022-12-07T11:20:13.797Z,3.05
2022-12-07T11:22:59.335Z,3.02
2022-12-07T11:25:36.624Z,3.09
2022-12-07T11:28:47.300Z,3.14
2022-12-07T11:31:52.090Z,3.20
2022-12-07T11:34:36.891Z,3.27
2022-12-07T11:37:09.515Z,3.24
2022-12-07T11:39:47.244Z,3.25
2022-12-07T11:42:37.435Z,3.33
2022-12-07T11:45:11.596Z,3.34
2022-12-07T11:47:47.621Z,3.38
2022-12-07T11:50:39.576Z,3.41
2022-12-07T11:53:08.935Z,3.43
2022-12-07T11:55:53.942Z,3.40
2022-12-07T11:58:38.504Z,3.48
2022-12-07T12:01:20.205Z,3.53
2022-12-07T12:03:52.798Z,3.55
2022-12-07T12:06:20.929Z,3.51
2022-12-07T12:15:23.573Z,3.59
2022-12-07T12:18:15.011Z,3.64
2022-12-07T12:20:51.557Z,3.75
2022-12-07T12:23:44.401Z,3.72
2022-12-07T12:26:25.904Z,3.71
2022-12-07T12:29:02.756Z,3.75
2022-12-07T12:31:29.157Z,3.73
2022-12-07T12:33:57.966Z,3.78
2022-12-07T12:36:43.985Z,3.82
2022-12-07T12:39:15.186Z,3.84
2022-12-07T12:42:01.845Z,3.74
2022-12-07T12:44:32.132Z,3.78
2022-12-07T12:47:02.962Z,3.85
2022-12-07T12:49:29.333Z,3.90
2022-12-07T12:52:01.368Z,3.91
2022-12-07T12:54:37.354Z,3.87
2022-12-07T12:57:17.457Z,3.83
2022-12-07T13:00:16.093Z,3.78
2022-12-07T13:02:54.072Z,3.83
2022-12-07T13:05:28.290Z,3.88
2022-12-07T13:08:19.266Z,3.94
2022-12-07T13:10:48.037Z,3.91
2022-12-07T13:13:19.934Z,3.95
2022-12-07T13:16:08.124Z,4.05
2022-12-07T13:18:34.641Z,4.07
2022-12-07T13:21:26.336Z,3.94
2022-12-07T13:24:00.171Z,3.88
2022-12-07T13:26:43.274Z,3.83
2022-12-07T13:29:18.604Z,3.83
2022-12-07T13:31:47.908Z,3.88
2022-12-07T13:34:44.720Z,3.90
2022-12-07T13:37:38.550Z,3.94
2022-12-07T13:40:23.708Z,3.94
2022-12-07T13:42:58.974Z,4.01
2022-12-07T13:45:50.488Z,4.02
2022-12-07T13:48:28.684Z,3.98
2022-12-07T13:50:56.415Z,3.90
2022-12-07T13:53:23.433Z,3.89
2022-12-07T13:55:54.279Z,3.92
2022-12-07T13:58:21.100Z,3.91
2022-12-07T14:00:47.608Z,3.97
2022-12-07T14:03:14.032Z,3.92
2022-12-07T14:05:42.523Z,3.91
2022-12-07T14:08:12.029Z,3.97
2022-12-07T14:10:55.780Z,4.00
2022-12-07T14:13:37.279Z,3.95
2022-12-07T14:16:06.856Z,3.94
2022-12-07T14:18:41.417Z,3.98
2022-12-07T14:21:17.247Z,3.85
2022-12-07T14:23:43.868Z,3.80
2022-12-07T14:26:20.390Z,3.86
2022-12-07T14:28:47.769Z,3.95
2022-12-07T14:31:29.618Z,3.97
2022-12-07T14:34:00.445Z,4.01
2022-12-07T14:36:26.986Z,4.02
2022-12-07T14:38:55.167Z,3.91
2022-12-07T14:41:42.340Z,3.84
2022-12-07T14:44:34.115Z,3.85
2022-12-07T14:49:45.867Z,3.86
2022-12-07T14:55:13.522Z,3.81
2022-12-07T14:57:39.920Z,3.78
2022-12-07T15:00:07.065Z,3.87
2022-12-07T15:02:33.531Z,3.80
2022-12-07T15:05:00.159Z,3.85
2022-12-07T15:07:27.503Z,3.81
2022-12-07T15:09:53.943Z,3.84
2022-12-07T15:12:20.384Z,3.88
2022-12-07T15:14:46.835Z,3.82
2022-12-07T15:17:24.730Z,3.80
2022-12-07T15:19:52.646Z,3.84
2022-12-07T15:22:19.075Z,3.86
2022-12-07T15:24:45.484Z,3.84
2022-12-07T15:27:11.938Z,3.76
2022-12-07T15:29:38.358Z,3.75
2022-12-07T15:32:05.553Z,3.81
2022-12-07T15:34:39.587Z,3.86
2022-12-07T15:37:07.356Z,3.88
2022-12-07T15:39:34.003Z,3.89
2022-12-07T15:42:00.526Z,3.88
2022-12-07T15:44:45.230Z,3.84
2022-12-07T15:47:11.701Z,3.83
2022-12-07T15:49:38.196Z,3.87
2022-12-07T15:52:04.778Z,3.89
2022-12-07T15:54:33.029Z,3.89
2022-12-07T15:56:59.667Z,3.85
2022-12-07T15:59:27.799Z,3.88
2022-12-07T16:01:54.347Z,3.84
2022-12-07T16:04:21.153Z,3.79
2022-12-07T16:06:47.933Z,3.80
2022-12-07T16:09:14.345Z,3.80
2022-12-07T16:11:40.762Z,3.77
2022-12-07T16:14:07.227Z,3.80
2022-12-07T16:16:34.076Z,3.84
2022-12-07T16:19:00.605Z,3.78
2022-12-07T16:21:27.067Z,3.72
2022-12-07T16:23:53.562Z,3.64
2022-12-07T16:26:22.549Z,3.77
2022-12-07T16:28:53.636Z,3.83
2022-12-07T16:31:22.450Z,3.73
2022-12-07T16:33:50.071Z,3.72
2022-12-07T16:36:34.352Z,3.68
2022-12-07T16:39:05.109Z,3.61
2022-12-07T16:41:32.274Z,3.56
2022-12-07T16:44:04.041Z,3.68
2022-12-07T16:46:30.497Z,3.71
2022-12-07T16:48:56.992Z,3.58
2022-12-07T16:51:23.408Z,3.49
2022-12-07T16:53:49.856Z,3.41
2022-12-07T16:56:17.313Z,3.40
2022-12-07T16:58:44.093Z,3.38
2022-12-07T17:01:16.559Z,3.24
2022-12-07T17:03:43.721Z,3.17
2022-12-07T17:06:16.189Z,3.24
2022-12-07T17:08:43.463Z,3.30
2022-12-07T17:11:31.737Z,3.36
2022-12-07T17:14:16.919Z,3.27
2022-12-07T17:16:43.417Z,3.33
2022-12-07T17:19:12.876Z,3.37
2022-12-07T17:21:39.699Z,3.31
2022-12-07T17:24:08.911Z,3.19
2022-12-07T17:26:36.371Z,3.11
2022-12-07T17:29:06.024Z,3.22
2022-12-07T17:31:33.403Z,3.13
2022-12-07T17:34:00.249Z,3.16
2022-12-07T17:36:29.363Z,3.23
2022-12-07T17:38:56.333Z,3.28
2022-12-07T17:41:45.248Z,3.29
2022-12-07T17:44:17.284Z,3.25
2022-12-07T17:46:45.161Z,3.30
2022-12-07T17:49:11.869Z,3.34
2022-12-07T17:51:57.109Z,3.32
2022-12-07T17:54:23.823Z,3.31
2022-12-07T17:56:50.814Z,3.36
2022-12-07T17:59:17.621Z,3.42
2022-12-07T18:01:45.057Z,3.43
2022-12-07T18:04:11.675Z,3.34
2022-12-07T18:06:38.546Z,3.23
2022-12-07T18:09:05.614Z,3.18
2022-12-07T18:11:32.561Z,3.11
2022-12-07T18:13:59.763Z,3.08
2022-12-07T18:16:29.660Z,2.99
2022-12-07T18:18:59.432Z,3.02
2022-12-07T18:21:28.073Z,3.01
2022-12-07T18:23:57.286Z,2.92
2022-12-07T18:26:25.791Z,2.80
2022-12-07T18:28:52.648Z,2.84
2022-12-07T18:31:20.345Z,2.91
2022-12-07T18:33:48.134Z,3.01
2022-12-07T18:36:16.170Z,3.04
2022-12-07T18:38:43.004Z,2.95
2022-12-07T18:41:12.460Z,2.98
2022-12-07T18:43:39.036Z,3.02
2022-12-07T18:46:21.450Z,3.12
2022-12-07T18:48:50.299Z,3.04
2022-12-07T18:51:17.834Z,2.98
2022-12-07T18:53:44.434Z,2.98
2022-12-07T18:56:16.675Z,2.98
2022-12-07T18:59:02.323Z,2.93
2022-12-07T19:01:31.939Z,2.87
2022-12-07T19:03:59.562Z,2.70
2022-12-07T19:06:26.743Z,2.68
2022-12-07T19:08:54.411Z,2.65
2022-12-07T19:11:46.539Z,2.55
2022-12-07T19:14:14.260Z,2.67
2022-12-07T19:16:42.995Z,2.78
2022-12-07T19:19:09.538Z,2.87
2022-12-07T19:21:36.066Z,2.88
2022-12-07T19:24:07.081Z,2.89
2022-12-07T19:26:34.121Z,2.90
2022-12-07T19:29:00.780Z,2.90
2022-12-07T19:31:27.295Z,2.87
2022-12-07T19:33:53.823Z,2.84
2022-12-07T19:36:20.233Z,2.93
2022-12-07T19:38:46.675Z,2.96
2022-12-07T19:41:32.753Z,3.00
2022-12-07T19:44:09.345Z,3.01
2022-12-07T19:46:35.856Z,2.92
2022-12-07T19:49:02.668Z,2.90
2022-12-07T19:51:30.799Z,2.81
2022-12-07T19:53:59.207Z,2.79
2022-12-07T19:56:28.261Z,2.87
2022-12-07T19:58:55.289Z,2.93
2022-12-07T20:01:22.070Z,2.86
2022-12-07T20:03:48.709Z,2.73
2022-12-07T20:06:20.243Z,2.70
2022-12-07T20:08:47.514Z,2.75
2022-12-07T20:11:34.350Z,2.83
2022-12-07T20:14:01.244Z,2.84
2022-12-07T20:16:27.906Z,2.80
2022-12-07T20:18:57.857Z,2.87
2022-12-07T20:21:24.989Z,2.81
2022-12-07T20:23:51.792Z,2.72
2022-12-07T20:26:18.722Z,2.77
2022-12-07T20:28:46.231Z,2.85
2022-12-07T20:31:16.917Z,2.89
2022-12-07T20:33:46.441Z,2.90
2022-12-07T20:36:15.233Z,2.98
2022-12-07T20:38:43.151Z,3.00
2022-12-07T20:41:31.152Z,3.04
2022-12-07T20:43:57.655Z,3.03
2022-12-07T20:46:24.485Z,3.04
2022-12-07T20:48:51.423Z,2.88
2022-12-07T20:51:18.868Z,2.84
2022-12-07T20:53:45.426Z,2.83
2022-12-07T20:56:20.546Z,2.94
2022-12-07T20:58:47.675Z,2.95
2022-12-07T21:01:15.003Z,2.99
2022-12-07T21:03:41.841Z,3.02
2022-12-07T21:06:12.209Z,2.95
2022-12-07T21:08:38.740Z,3.02
2022-12-07T21:11:09.139Z,3.04
2022-12-07T21:13:35.580Z,3.02
2022-12-07T21:16:07.511Z,2.93
2022-12-07T21:18:34.314Z,2.95
2022-12-07T21:21:04.748Z,2.98
2022-12-07T21:23:31.938Z,2.95
2022-12-07T21:25:58.509Z,2.93
2022-12-07T21:28:24.944Z,2.90
2022-12-07T21:31:12.522Z,2.87
2022-12-07T21:33:40.291Z,2.96
2022-12-07T21:36:07.982Z,2.94
2022-12-07T21:38:34.508Z,2.93
2022-12-07T21:41:09.950Z,2.90
2022-12-07T21:43:36.363Z,2.90
2022-12-07T21:46:02.852Z,2.92
2022-12-07T21:48:29.383Z,2.96
2022-12-07T21:50:55.808Z,2.97
2022-12-07T21:53:22.238Z,3.00
2022-12-07T21:55:48.825Z,2.98
2022-12-07T21:58:15.433Z,3.01
2022-12-07T22:00:41.839Z,3.01
2022-12-07T22:03:12.180Z,3.01
2022-12-07T22:05:38.649Z,3.07
2022-12-07T22:08:05.454Z,3.06
2022-12-07T22:10:31.985Z,3.08
2022-12-07T22:12:59.460Z,3.04
2022-12-07T22:15:27.372Z,3.11
2022-12-07T22:17:55.673Z,3.14
2022-12-07T22:20:23.442Z,3.10
2022-12-07T22:22:50.272Z,3.15
2022-12-07T22:25:16.780Z,3.18
2022-12-07T22:27:43.586Z,3.13
2022-12-07T22:30:11.998Z,3.20
2022-12-07T22:32:48.238Z,3.26
2022-12-07T22:35:15.584Z,3.22
2022-12-07T22:37:42.040Z,3.14
2022-12-07T22:40:08.865Z,3.13
2022-12-07T22:42:35.351Z,3.21
2022-12-07T22:45:02.019Z,3.21
2022-12-07T22:47:28.653Z,3.29
2022-12-07T22:49:55.645Z,3.30
2022-12-07T22:52:22.203Z,3.31
2022-12-07T22:54:49.042Z,3.31
2022-12-07T22:57:15.520Z,3.35
2022-12-07T22:59:42.331Z,3.33
2022-12-07T23:02:08.972Z,3.29
2022-12-07T23:04:35.537Z,3.30
2022-12-07T23:07:02.063Z,3.23
2022-12-07T23:09:28.562Z,3.18
2022-12-07T23:12:13.538Z,3.18
2022-12-07T23:14:40.017Z,3.20
2022-12-07T23:17:06.818Z,3.20
2022-12-07T23:19:33.306Z,3.17
2022-12-07T23:22:00.107Z,3.23
2022-12-07T23:24:27.028Z,3.27
2022-12-07T23:26:53.543Z,3.26
2022-12-07T23:29:19.971Z,3.24
2022-12-07T23:31:47.904Z,3.31
2022-12-07T23:34:14.465Z,3.35
2022-12-07T23:36:40.906Z,3.31
2022-12-07T23:39:07.457Z,3.37
2022-12-07T23:41:33.957Z,3.38
2022-12-07T23:44:01.865Z,3.43
2022-12-07T23:46:30.825Z,3.45
2022-12-07T23:48:58.468Z,3.38
2022-12-07T23:51:25.367Z,3.33
2022-12-07T23:53:53.214Z,3.37
2022-12-07T23:56:25.766Z,3.42
2022-12-07T23:58:53.642Z,3.36
